Main page
METAR-TAF:

METAR-TAF

Airports :

Austin Municipal Airport

Austin, Minnesota, United States

latitude: 43-40N, longitude: 092-56W, elevation: 1230 ft

Current weather observation

The report was made 21 minutes ago, at 02:15 UTC
Wind 14 mph from the South with gusts up to 20 mph
Temperature 43°F
Humidity 33%
Pressure 29.99 in. Hg
Visibility: 10 miles
Clear sky

METAR: KAUM 010215Z AUTO 18012G17KT 10SM CLR 06/M09 A2999 RMK AO2

Time: 20:36 (02:36 UTC)


TAF: missing

Weather observations and forecasts of more than 4000 airports (METAR and TAF reports).

The available stations are represented by yellow and red dots on the map.

Hover mouse over dot to see the name of the station.

Then click to see weather observations and forecasts.

To change the map : click on the green buttons with a black cross to zoom in, on the green button with a dash to zoom out, or on the green arrows for adjacent maps.


METAR-TAF: